sensor_id;sensor_type;location;lat;lon;timestamp;P1;durP1;ratioP1;P2;durP2;ratioP2
17193;SDS011;8713;48.388;10.928;2022-10-16T04:57:46;1.08;;;0.80;;
17193;SDS011;8713;48.388;10.928;2022-10-16T04:58:55;1.98;;;0.80;;
17193;SDS011;8713;48.388;10.928;2022-10-16T05:00:05;1.13;;;0.80;;
17193;SDS011;8713;48.388;10.928;2022-10-16T05:01:14;2.67;;;0.80;;
17193;SDS011;8713;48.388;10.928;2022-10-16T05:02:24;1.95;;;0.90;;
17193;SDS011;8713;48.388;10.928;2022-10-16T05:03:33;1.17;;;0.88;;
17193;SDS011;8713;48.388;10.928;2022-10-16T05:04:43;3.25;;;0.90;;
17193;SDS011;8713;48.388;10.928;2022-10-16T05:05:52;1.42;;;0.90;;
17193;SDS011;8713;48.388;10.928;2022-10-16T05:07:02;1.73;;;0.90;;
17193;SDS011;8713;48.388;10.928;2022-10-16T05:08:12;1.75;;;0.75;;
17193;SDS011;8713;48.388;10.928;2022-10-16T05:09:22;2.33;;;0.85;;
17193;SDS011;8713;48.388;10.928;2022-10-16T05:10:32;1.88;;;0.80;;
17193;SDS011;8713;48.388;10.928;2022-10-16T05:11:41;0.90;;;0.70;;
17193;SDS011;8713;48.388;10.928;2022-10-16T05:12:51;0.77;;;0.70;;
17193;SDS011;8713;48.388;10.928;2022-10-16T05:14:01;0.90;;;0.80;;
17193;SDS011;8713;48.388;10.928;2022-10-16T05:15:11;2.10;;;0.90;;
17193;SDS011;8713;48.388;10.928;2022-10-16T05:16:20;0.88;;;0.70;;
17193;SDS011;8713;48.388;10.928;2022-10-16T05:17:30;1.40;;;0.65;;
17193;SDS011;8713;48.388;10.928;2022-10-16T05:18:39;2.17;;;0.73;;
17193;SDS011;8713;48.388;10.928;2022-10-16T05:19:49;1.33;;;0.80;;
17193;SDS011;8713;48.388;10.928;2022-10-16T05:20:59;0.63;;;0.63;;
17193;SDS011;8713;48.388;10.928;2022-10-16T05:22:08;1.38;;;0.82;;
17193;SDS011;8713;48.388;10.928;2022-10-16T05:23:18;1.23;;;0.70;;
17193;SDS011;8713;48.388;10.928;2022-10-16T05:24:27;1.45;;;0.90;;
17193;SDS011;8713;48.388;10.928;2022-10-16T05:25:37;1.20;;;0.90;;
17193;SDS011;8713;48.388;10.928;2022-10-16T05:26:46;1.13;;;0.93;;
17193;SDS011;8713;48.388;10.928;2022-10-16T05:27:56;1.17;;;0.80;;
17193;SDS011;8713;48.388;10.928;2022-10-16T05:29:05;0.98;;;0.80;;
17193;SDS011;8713;48.388;10.928;2022-10-16T05:30:15;2.63;;;0.75;;
17193;SDS011;8713;48.388;10.928;2022-10-16T05:31:26;1.40;;;0.90;;
17193;SDS011;8713;48.388;10.928;2022-10-16T05:32:35;4.55;;;0.80;;
17193;SDS011;8713;48.388;10.928;2022-10-16T05:33:45;2.33;;;0.90;;
17193;SDS011;8713;48.388;10.928;2022-10-16T05:34:54;2.90;;;0.80;;
17193;SDS011;8713;48.388;10.928;2022-10-16T05:36:04;0.80;;;0.70;;
17193;SDS011;8713;48.388;10.928;2022-10-16T05:37:16;1.60;;;1.00;;
17193;SDS011;8713;48.388;10.928;2022-10-16T05:38:26;1.20;;;0.85;;
17193;SDS011;8713;48.388;10.928;2022-10-16T05:39:35;1.55;;;0.98;;
17193;SDS011;8713;48.388;10.928;2022-10-16T05:40:51;1.75;;;1.10;;
17193;SDS011;8713;48.388;10.928;2022-10-16T05:42:01;1.25;;;1.00;;
17193;SDS011;8713;48.388;10.928;2022-10-16T05:47:55;0.85;;;0.70;;
17193;SDS011;8713;48.388;10.928;2022-10-16T05:49:05;0.90;;;0.88;;
17193;SDS011;8713;48.388;10.928;2022-10-16T05:50:14;0.82;;;0.80;;
17193;SDS011;8713;48.388;10.928;2022-10-16T05:51:24;4.60;;;0.85;;
17193;SDS011;8713;48.388;10.928;2022-10-16T05:52:33;2.13;;;0.80;;
17193;SDS011;8713;48.388;10.928;2022-10-16T05:53:43;0.98;;;0.68;;
17193;SDS011;8713;48.388;10.928;2022-10-16T05:54:52;3.35;;;0.80;;
17193;SDS011;8713;48.388;10.928;2022-10-16T05:56:03;1.73;;;0.90;;
17193;SDS011;8713;48.388;10.928;2022-10-16T05:57:12;1.23;;;0.70;;
17193;SDS011;8713;48.388;10.928;2022-10-16T05:58:23;1.17;;;0.85;;
17193;SDS011;8713;48.388;10.928;2022-10-16T05:59:34;0.98;;;0.80;;
17193;SDS011;8713;48.388;10.928;2022-10-16T06:00:44;1.63;;;1.00;;
17193;SDS011;8713;48.388;10.928;2022-10-16T06:01:53;2.38;;;0.90;;
17193;SDS011;8713;48.388;10.928;2022-10-16T06:03:03;0.98;;;0.90;;
17193;SDS011;8713;48.388;10.928;2022-10-16T06:04:13;0.98;;;0.85;;
17193;SDS011;8713;48.388;10.928;2022-10-16T06:05:23;1.25;;;0.75;;
17193;SDS011;8713;48.388;10.928;2022-10-16T06:06:32;0.70;;;0.68;;
17193;SDS011;8713;48.388;10.928;2022-10-16T06:07:42;1.38;;;0.75;;
17193;SDS011;8713;48.388;10.928;2022-10-16T06:08:52;1.45;;;0.80;;
17193;SDS011;8713;48.388;10.928;2022-10-16T06:10:03;2.17;;;1.00;;
17193;SDS011;8713;48.388;10.928;2022-10-16T06:11:17;1.77;;;1.25;;
17193;SDS011;8713;48.388;10.928;2022-10-16T06:12:29;1.20;;;0.90;;
17193;SDS011;8713;48.388;10.928;2022-10-16T06:13:39;1.25;;;0.93;;
17193;SDS011;8713;48.388;10.928;2022-10-16T06:14:51;1.92;;;1.40;;
17193;SDS011;8713;48.388;10.928;2022-10-16T06:16:00;4.65;;;1.48;;
17193;SDS011;8713;48.388;10.928;2022-10-16T06:17:10;1.80;;;0.82;;
17193;SDS011;8713;48.388;10.928;2022-10-16T06:18:19;1.88;;;0.88;;
17193;SDS011;8713;48.388;10.928;2022-10-16T06:19:29;0.90;;;0.80;;
17193;SDS011;8713;48.388;10.928;2022-10-16T06:20:38;1.38;;;0.88;;
17193;SDS011;8713;48.388;10.928;2022-10-16T06:21:48;1.40;;;0.80;;
17193;SDS011;8713;48.388;10.928;2022-10-16T06:22:58;1.15;;;0.80;;
17193;SDS011;8713;48.388;10.928;2022-10-16T06:24:07;2.20;;;1.30;;
17193;SDS011;8713;48.388;10.928;2022-10-16T06:25:17;3.78;;;2.60;;
17193;SDS011;8713;48.388;10.928;2022-10-16T06:26:28;5.60;;;3.10;;
17193;SDS011;8713;48.388;10.928;2022-10-16T06:27:41;6.57;;;3.72;;
17193;SDS011;8713;48.388;10.928;2022-10-16T06:28:51;2.88;;;2.20;;
17193;SDS011;8713;48.388;10.928;2022-10-16T06:30:02;5.22;;;3.33;;
17193;SDS011;8713;48.388;10.928;2022-10-16T06:31:12;7.95;;;5.10;;
17193;SDS011;8713;48.388;10.928;2022-10-16T06:32:21;17.02;;;8.23;;
17193;SDS011;8713;48.388;10.928;2022-10-16T06:33:31;16.00;;;8.80;;
17193;SDS011;8713;48.388;10.928;2022-10-16T06:34:40;5.28;;;2.90;;
17193;SDS011;8713;48.388;10.928;2022-10-16T06:35:50;4.03;;;2.05;;
17193;SDS011;8713;48.388;10.928;2022-10-16T06:36:59;2.63;;;1.63;;
17193;SDS011;8713;48.388;10.928;2022-10-16T06:38:09;2.83;;;1.60;;
17193;SDS011;8713;48.388;10.928;2022-10-16T06:39:19;2.33;;;1.17;;
17193;SDS011;8713;48.388;10.928;2022-10-16T06:40:28;1.98;;;0.80;;
17193;SDS011;8713;48.388;10.928;2022-10-16T06:41:38;1.02;;;0.73;;
17193;SDS011;8713;48.388;10.928;2022-10-16T06:42:57;1.10;;;0.80;;
17193;SDS011;8713;48.388;10.928;2022-10-16T06:44:07;1.63;;;0.90;;
17193;SDS011;8713;48.388;10.928;2022-10-16T06:45:16;1.95;;;0.80;;
17193;SDS011;8713;48.388;10.928;2022-10-16T06:46:26;0.98;;;0.70;;
17193;SDS011;8713;48.388;10.928;2022-10-16T06:47:36;0.82;;;0.65;;
17193;SDS011;8713;48.388;10.928;2022-10-16T06:48:45;3.33;;;0.80;;
17193;SDS011;8713;48.388;10.928;2022-10-16T06:49:55;1.00;;;0.80;;
17193;SDS011;8713;48.388;10.928;2022-10-16T06:51:06;4.35;;;2.40;;
17193;SDS011;8713;48.388;10.928;2022-10-16T06:52:17;2.63;;;0.90;;
17193;SDS011;8713;48.388;10.928;2022-10-16T06:53:28;3.20;;;0.90;;
17193;SDS011;8713;48.388;10.928;2022-10-16T06:54:40;2.50;;;1.17;;
17193;SDS011;8713;48.388;10.928;2022-10-16T06:55:49;1.73;;;0.90;;
17193;SDS011;8713;48.388;10.928;2022-10-16T06:56:59;2.38;;;1.10;;
17193;SDS011;8713;48.388;10.928;2022-10-16T06:58:10;1.27;;;0.80;;
17193;SDS011;8713;48.388;10.928;2022-10-16T06:59:20;0.98;;;0.80;;
17193;SDS011;8713;48.388;10.928;2022-10-16T07:00:30;1.00;;;0.73;;
17193;SDS011;8713;48.388;10.928;2022-10-16T07:01:39;2.10;;;0.77;;
17193;SDS011;8713;48.388;10.928;2022-10-16T07:02:49;1.60;;;0.90;;
17193;SDS011;8713;48.388;10.928;2022-10-16T07:03:59;1.45;;;0.90;;
17193;SDS011;8713;48.388;10.928;2022-10-16T07:05:09;1.98;;;1.05;;
17193;SDS011;8713;48.388;10.928;2022-10-16T07:06:19;1.75;;;0.90;;
17193;SDS011;8713;48.388;10.928;2022-10-16T07:07:30;2.67;;;1.00;;
17193;SDS011;8713;48.388;10.928;2022-10-16T07:08:40;2.80;;;0.80;;
17193;SDS011;8713;48.388;10.928;2022-10-16T07:09:52;2.17;;;0.90;;
17193;SDS011;8713;48.388;10.928;2022-10-16T07:11:02;6.65;;;0.90;;
17193;SDS011;8713;48.388;10.928;2022-10-16T07:12:14;2.40;;;0.75;;
17193;SDS011;8713;48.388;10.928;2022-10-16T07:13:24;1.23;;;0.80;;
17193;SDS011;8713;48.388;10.928;2022-10-16T07:14:33;0.95;;;0.70;;
17193;SDS011;8713;48.388;10.928;2022-10-16T07:15:43;1.15;;;0.80;;
17193;SDS011;8713;48.388;10.928;2022-10-16T07:16:52;3.28;;;0.63;;
17193;SDS011;8713;48.388;10.928;2022-10-16T07:18:01;1.23;;;0.77;;
17193;SDS011;8713;48.388;10.928;2022-10-16T07:19:11;4.30;;;0.90;;
17193;SDS011;8713;48.388;10.928;2022-10-16T07:20:23;1.50;;;0.82;;
17193;SDS011;8713;48.388;10.928;2022-10-16T07:21:33;1.23;;;0.98;;
17193;SDS011;8713;48.388;10.928;2022-10-16T07:22:44;1.13;;;0.80;;
17193;SDS011;8713;48.388;10.928;2022-10-16T07:23:54;2.55;;;0.73;;
17193;SDS011;8713;48.388;10.928;2022-10-16T07:25:09;5.15;;;0.68;;
17193;SDS011;8713;48.388;10.928;2022-10-16T07:26:19;1.98;;;0.85;;
17193;SDS011;8713;48.388;10.928;2022-10-16T07:27:29;2.22;;;0.90;;
17193;SDS011;8713;48.388;10.928;2022-10-16T07:28:39;1.73;;;0.70;;
17193;SDS011;8713;48.388;10.928;2022-10-16T07:29:49;1.92;;;0.93;;
17193;SDS011;8713;48.388;10.928;2022-10-16T07:31:05;2.88;;;1.00;;
17193;SDS011;8713;48.388;10.928;2022-10-16T07:32:19;1.55;;;1.08;;
17193;SDS011;8713;48.388;10.928;2022-10-16T07:33:28;2.58;;;0.80;;
17193;SDS011;8713;48.388;10.928;2022-10-16T07:34:38;1.00;;;0.80;;
17193;SDS011;8713;48.388;10.928;2022-10-16T07:35:53;2.42;;;1.00;;
17193;SDS011;8713;48.388;10.928;2022-10-16T07:37:03;2.20;;;1.10;;
17193;SDS011;8713;48.388;10.928;2022-10-16T07:38:12;1.42;;;0.98;;
17193;SDS011;8713;48.388;10.928;2022-10-16T07:39:22;2.60;;;0.90;;
17193;SDS011;8713;48.388;10.928;2022-10-16T07:40:32;1.40;;;0.80;;
17193;SDS011;8713;48.388;10.928;2022-10-16T07:41:41;1.02;;;0.80;;
17193;SDS011;8713;48.388;10.928;2022-10-16T07:42:51;1.48;;;1.00;;
17193;SDS011;8713;48.388;10.928;2022-10-16T07:44:00;2.17;;;0.90;;
17193;SDS011;8713;48.388;10.928;2022-10-16T07:45:10;2.15;;;0.93;;
17193;SDS011;8713;48.388;10.928;2022-10-16T07:46:20;1.80;;;0.82;;
17193;SDS011;8713;48.388;10.928;2022-10-16T07:47:31;3.13;;;1.08;;
17193;SDS011;8713;48.388;10.928;2022-10-16T07:48:40;1.33;;;0.88;;
17193;SDS011;8713;48.388;10.928;2022-10-16T07:49:54;2.33;;;0.95;;
17193;SDS011;8713;48.388;10.928;2022-10-16T07:51:04;1.73;;;1.00;;
17193;SDS011;8713;48.388;10.928;2022-10-16T07:52:15;1.42;;;0.90;;
17193;SDS011;8713;48.388;10.928;2022-10-16T07:53:25;1.80;;;1.05;;
17193;SDS011;8713;48.388;10.928;2022-10-16T07:54:34;1.17;;;0.75;;
17193;SDS011;8713;48.388;10.928;2022-10-16T07:55:44;2.60;;;0.88;;
17193;SDS011;8713;48.388;10.928;2022-10-16T07:56:53;1.55;;;0.90;;
17193;SDS011;8713;48.388;10.928;2022-10-16T07:58:03;3.30;;;0.82;;
17193;SDS011;8713;48.388;10.928;2022-10-16T07:59:13;1.60;;;1.05;;
17193;SDS011;8713;48.388;10.928;2022-10-16T08:00:22;3.60;;;0.90;;
17193;SDS011;8713;48.388;10.928;2022-10-16T08:01:32;2.10;;;0.80;;
17193;SDS011;8713;48.388;10.928;2022-10-16T08:02:41;3.65;;;1.02;;
17193;SDS011;8713;48.388;10.928;2022-10-16T08:03:52;1.20;;;0.70;;
17193;SDS011;8713;48.388;10.928;2022-10-16T08:05:01;2.20;;;0.90;;
17193;SDS011;8713;48.388;10.928;2022-10-16T08:06:11;1.60;;;0.98;;
17193;SDS011;8713;48.388;10.928;2022-10-16T08:07:20;1.75;;;1.00;;
17193;SDS011;8713;48.388;10.928;2022-10-16T08:08:30;1.63;;;0.75;;
17193;SDS011;8713;48.388;10.928;2022-10-16T08:09:39;0.93;;;0.70;;
17193;SDS011;8713;48.388;10.928;2022-10-16T08:10:49;0.88;;;0.82;;
17193;SDS011;8713;48.388;10.928;2022-10-16T08:11:58;2.10;;;0.82;;
17193;SDS011;8713;48.388;10.928;2022-10-16T08:13:08;1.80;;;0.88;;
17193;SDS011;8713;48.388;10.928;2022-10-16T08:14:18;1.50;;;0.90;;
17193;SDS011;8713;48.388;10.928;2022-10-16T08:15:27;1.38;;;0.95;;
17193;SDS011;8713;48.388;10.928;2022-10-16T08:16:37;2.25;;;1.00;;
17193;SDS011;8713;48.388;10.928;2022-10-16T08:17:56;1.45;;;0.95;;
17193;SDS011;8713;48.388;10.928;2022-10-16T08:19:07;3.45;;;0.85;;
17193;SDS011;8713;48.388;10.928;2022-10-16T08:20:16;1.77;;;0.88;;
17193;SDS011;8713;48.388;10.928;2022-10-16T08:21:26;1.13;;;0.70;;
17193;SDS011;8713;48.388;10.928;2022-10-16T08:22:35;1.25;;;0.90;;
17193;SDS011;8713;48.388;10.928;2022-10-16T08:23:45;2.22;;;0.80;;
17193;SDS011;8713;48.388;10.928;2022-10-16T08:24:54;0.90;;;0.75;;
17193;SDS011;8713;48.388;10.928;2022-10-16T08:26:05;1.95;;;0.75;;
17193;SDS011;8713;48.388;10.928;2022-10-16T08:27:16;1.13;;;0.80;;
17193;SDS011;8713;48.388;10.928;2022-10-16T08:28:25;1.77;;;0.82;;
17193;SDS011;8713;48.388;10.928;2022-10-16T08:29:34;3.70;;;0.98;;
17193;SDS011;8713;48.388;10.928;2022-10-16T08:30:44;1.20;;;1.00;;
17193;SDS011;8713;48.388;10.928;2022-10-16T08:31:53;2.42;;;0.77;;
17193;SDS011;8713;48.388;10.928;2022-10-16T08:33:03;1.27;;;0.90;;
17193;SDS011;8713;48.388;10.928;2022-10-16T08:34:12;2.33;;;1.00;;
17193;SDS011;8713;48.388;10.928;2022-10-16T08:35:22;1.83;;;0.95;;
17193;SDS011;8713;48.388;10.928;2022-10-16T08:36:31;0.80;;;0.70;;
17193;SDS011;8713;48.388;10.928;2022-10-16T08:37:41;1.50;;;0.90;;
17193;SDS011;8713;48.388;10.928;2022-10-16T08:38:50;2.85;;;0.70;;
17193;SDS011;8713;48.388;10.928;2022-10-16T08:40:03;1.58;;;0.82;;
17193;SDS011;8713;48.388;10.928;2022-10-16T08:46:24;1.23;;;0.80;;
17193;SDS011;8713;48.388;10.928;2022-10-16T08:47:58;0.90;;;0.60;;
17193;SDS011;8713;48.388;10.928;2022-10-16T08:49:13;2.50;;;0.70;;
17193;SDS011;8713;48.388;10.928;2022-10-16T08:50:24;2.13;;;0.85;;
17193;SDS011;8713;48.388;10.928;2022-10-16T08:51:38;1.67;;;0.98;;
17193;SDS011;8713;48.388;10.928;2022-10-16T08:52:48;2.17;;;0.60;;
17193;SDS011;8713;48.388;10.928;2022-10-16T08:56:53;1.38;;;0.70;;
17193;SDS011;8713;48.388;10.928;2022-10-16T08:59:25;3.03;;;0.85;;
17193;SDS011;8713;48.388;10.928;2022-10-16T09:00:35;2.53;;;0.85;;
17193;SDS011;8713;48.388;10.928;2022-10-16T09:01:46;1.05;;;0.70;;
17193;SDS011;8713;48.388;10.928;2022-10-16T09:03:16;3.42;;;0.77;;
17193;SDS011;8713;48.388;10.928;2022-10-16T09:06:31;2.88;;;0.80;;
17193;SDS011;8713;48.388;10.928;2022-10-16T09:10:00;1.40;;;0.80;;
17193;SDS011;8713;48.388;10.928;2022-10-16T09:12:44;0.77;;;0.70;;
17193;SDS011;8713;48.388;10.928;2022-10-16T09:14:08;2.28;;;0.90;;
17193;SDS011;8713;48.388;10.928;2022-10-16T09:15:34;0.70;;;0.70;;
17193;SDS011;8713;48.388;10.928;2022-10-16T09:16:51;2.05;;;0.70;;
17193;SDS011;8713;48.388;10.928;2022-10-16T09:18:09;0.63;;;0.63;;
17193;SDS011;8713;48.388;10.928;2022-10-16T09:19:28;1.35;;;0.77;;
17193;SDS011;8713;48.388;10.928;2022-10-16T09:20:49;0.80;;;0.80;;
17193;SDS011;8713;48.388;10.928;2022-10-16T09:22:09;1.38;;;0.80;;
17193;SDS011;8713;48.388;10.928;2022-10-16T09:24:39;1.40;;;0.90;;
17193;SDS011;8713;48.388;10.928;2022-10-16T09:25:48;2.00;;;0.65;;
17193;SDS011;8713;48.388;10.928;2022-10-16T09:26:58;0.80;;;0.70;;
17193;SDS011;8713;48.388;10.928;2022-10-16T09:28:08;2.78;;;0.80;;
17193;SDS011;8713;48.388;10.928;2022-10-16T09:29:19;1.30;;;0.70;;
17193;SDS011;8713;48.388;10.928;2022-10-16T09:30:30;2.35;;;0.73;;
17193;SDS011;8713;48.388;10.928;2022-10-16T09:31:39;0.68;;;0.60;;
17193;SDS011;8713;48.388;10.928;2022-10-16T09:32:51;0.90;;;0.88;;
17193;SDS011;8713;48.388;10.928;2022-10-16T09:34:02;1.58;;;0.70;;
17193;SDS011;8713;48.388;10.928;2022-10-16T09:35:20;1.02;;;0.60;;
17193;SDS011;8713;48.388;10.928;2022-10-16T09:36:36;1.67;;;0.60;;
17193;SDS011;8713;48.388;10.928;2022-10-16T09:37:51;2.55;;;0.75;;
17193;SDS011;8713;48.388;10.928;2022-10-16T09:39:03;2.67;;;0.85;;
17193;SDS011;8713;48.388;10.928;2022-10-16T09:40:26;1.42;;;0.80;;
17193;SDS011;8713;48.388;10.928;2022-10-16T09:41:43;1.63;;;0.50;;
17193;SDS011;8713;48.388;10.928;2022-10-16T09:44:31;1.60;;;0.80;;
17193;SDS011;8713;48.388;10.928;2022-10-16T09:45:41;1.23;;;0.70;;
17193;SDS011;8713;48.388;10.928;2022-10-16T09:47:00;1.35;;;0.60;;
17193;SDS011;8713;48.388;10.928;2022-10-16T09:48:33;1.02;;;0.60;;
17193;SDS011;8713;48.388;10.928;2022-10-16T09:49:51;3.08;;;0.60;;
17193;SDS011;8713;48.388;10.928;2022-10-16T09:51:27;0.68;;;0.55;;
17193;SDS011;8713;48.388;10.928;2022-10-16T09:52:39;0.75;;;0.70;;
17193;SDS011;8713;48.388;10.928;2022-10-16T09:53:49;0.70;;;0.57;;
17193;SDS011;8713;48.388;10.928;2022-10-16T09:55:14;0.82;;;0.65;;
17193;SDS011;8713;48.388;10.928;2022-10-16T09:56:27;0.98;;;0.77;;
17193;SDS011;8713;48.388;10.928;2022-10-16T09:57:49;1.25;;;0.70;;
17193;SDS011;8713;48.388;10.928;2022-10-16T09:59:08;1.20;;;0.65;;
17193;SDS011;8713;48.388;10.928;2022-10-16T10:00:22;1.13;;;0.60;;
17193;SDS011;8713;48.388;10.928;2022-10-16T10:01:36;0.80;;;0.73;;
17193;SDS011;8713;48.388;10.928;2022-10-16T10:02:50;0.52;;;0.52;;
17193;SDS011;8713;48.388;10.928;2022-10-16T10:04:00;2.22;;;0.70;;
17193;SDS011;8713;48.388;10.928;2022-10-16T10:05:18;0.82;;;0.73;;
17193;SDS011;8713;48.388;10.928;2022-10-16T10:06:33;1.23;;;0.60;;
17193;SDS011;8713;48.388;10.928;2022-10-16T10:07:52;1.05;;;0.60;;
17193;SDS011;8713;48.388;10.928;2022-10-16T10:10:45;0.90;;;0.55;;
17193;SDS011;8713;48.388;10.928;2022-10-16T10:12:01;2.58;;;0.90;;
17193;SDS011;8713;48.388;10.928;2022-10-16T10:13:17;1.45;;;1.08;;
17193;SDS011;8713;48.388;10.928;2022-10-16T10:15:48;1.60;;;0.70;;
17193;SDS011;8713;48.388;10.928;2022-10-16T10:17:07;1.35;;;0.60;;
17193;SDS011;8713;48.388;10.928;2022-10-16T10:18:29;1.10;;;0.70;;
17193;SDS011;8713;48.388;10.928;2022-10-16T10:19:45;1.40;;;0.70;;
17193;SDS011;8713;48.388;10.928;2022-10-16T10:20:59;2.28;;;0.70;;
17193;SDS011;8713;48.388;10.928;2022-10-16T10:22:45;0.95;;;0.70;;
17193;SDS011;8713;48.388;10.928;2022-10-16T10:23:55;2.05;;;0.60;;
17193;SDS011;8713;48.388;10.928;2022-10-16T10:26:18;1.80;;;0.60;;
17193;SDS011;8713;48.388;10.928;2022-10-16T10:27:35;1.38;;;0.80;;
17193;SDS011;8713;48.388;10.928;2022-10-16T10:34:42;1.33;;;0.70;;
17193;SDS011;8713;48.388;10.928;2022-10-16T10:36:50;2.17;;;0.70;;
17193;SDS011;8713;48.388;10.928;2022-10-16T10:39:24;0.93;;;0.60;;
17193;SDS011;8713;48.388;10.928;2022-10-16T10:46:56;1.42;;;0.90;;
17193;SDS011;8713;48.388;10.928;2022-10-16T10:48:33;0.98;;;0.63;;
17193;SDS011;8713;48.388;10.928;2022-10-16T10:58:01;1.48;;;0.90;;
17193;SDS011;8713;48.388;10.928;2022-10-16T10:59:58;1.15;;;0.70;;
17193;SDS011;8713;48.388;10.928;2022-10-16T11:06:36;4.07;;;0.77;;
17193;SDS011;8713;48.388;10.928;2022-10-16T11:09:23;2.08;;;0.85;;
17193;SDS011;8713;48.388;10.928;2022-10-16T11:12:07;2.22;;;0.82;;
17193;SDS011;8713;48.388;10.928;2022-10-16T11:15:03;1.77;;;0.80;;
17193;SDS011;8713;48.388;10.928;2022-10-16T11:17:42;1.60;;;0.80;;
17193;SDS011;8713;48.388;10.928;2022-10-16T11:20:41;0.80;;;0.70;;
17193;SDS011;8713;48.388;10.928;2022-10-16T11:22:02;0.90;;;0.73;;
17193;SDS011;8713;48.388;10.928;2022-10-16T11:23:29;1.88;;;1.10;;
17193;SDS011;8713;48.388;10.928;2022-10-16T11:24:53;1.08;;;0.88;;
17193;SDS011;8713;48.388;10.928;2022-10-16T11:26:13;1.13;;;0.73;;
17193;SDS011;8713;48.388;10.928;2022-10-16T11:28:12;1.80;;;0.90;;
17193;SDS011;8713;48.388;10.928;2022-10-16T11:29:07;1.75;;;0.88;;
17193;SDS011;8713;48.388;10.928;2022-10-16T11:30:29;0.70;;;0.50;;
17193;SDS011;8713;48.388;10.928;2022-10-16T11:31:47;2.00;;;0.60;;
17193;SDS011;8713;48.388;10.928;2022-10-16T11:33:24;1.25;;;0.57;;
17193;SDS011;8713;48.388;10.928;2022-10-16T11:34:52;1.02;;;0.70;;
17193;SDS011;8713;48.388;10.928;2022-10-16T11:36:14;0.85;;;0.50;;
17193;SDS011;8713;48.388;10.928;2022-10-16T11:37:30;0.52;;;0.52;;
17193;SDS011;8713;48.388;10.928;2022-10-16T11:38:48;0.98;;;0.55;;
17193;SDS011;8713;48.388;10.928;2022-10-16T11:40:36;0.82;;;0.55;;
17193;SDS011;8713;48.388;10.928;2022-10-16T11:42:08;0.50;;;0.50;;
17193;SDS011;8713;48.388;10.928;2022-10-16T11:43:38;0.70;;;0.60;;
17193;SDS011;8713;48.388;10.928;2022-10-16T11:44:59;1.35;;;0.95;;
17193;SDS011;8713;48.388;10.928;2022-10-16T11:46:17;0.50;;;0.50;;
17193;SDS011;8713;48.388;10.928;2022-10-16T11:50:29;2.50;;;0.70;;
17193;SDS011;8713;48.388;10.928;2022-10-16T11:54:32;1.38;;;0.80;;
17193;SDS011;8713;48.388;10.928;2022-10-16T11:55:48;0.75;;;0.60;;
17193;SDS011;8713;48.388;10.928;2022-10-16T11:56:59;0.98;;;0.60;;
17193;SDS011;8713;48.388;10.928;2022-10-16T11:58:20;2.25;;;0.70;;
17193;SDS011;8713;48.388;10.928;2022-10-16T11:59:40;1.23;;;0.60;;
17193;SDS011;8713;48.388;10.928;2022-10-16T12:08:23;1.25;;;0.80;;
17193;SDS011;8713;48.388;10.928;2022-10-16T12:09:33;1.67;;;0.85;;
17193;SDS011;8713;48.388;10.928;2022-10-16T12:10:46;1.23;;;0.88;;
17193;SDS011;8713;48.388;10.928;2022-10-16T12:11:56;0.80;;;0.80;;
17193;SDS011;8713;48.388;10.928;2022-10-16T12:14:46;0.85;;;0.60;;
17193;SDS011;8713;48.388;10.928;2022-10-16T12:18:30;1.88;;;0.60;;
17193;SDS011;8713;48.388;10.928;2022-10-16T12:19:39;0.82;;;0.60;;
17193;SDS011;8713;48.388;10.928;2022-10-16T12:20:55;0.60;;;0.60;;
17193;SDS011;8713;48.388;10.928;2022-10-16T12:22:17;0.85;;;0.70;;
17193;SDS011;8713;48.388;10.928;2022-10-16T12:23:27;0.50;;;0.50;;
17193;SDS011;8713;48.388;10.928;2022-10-16T12:24:37;4.20;;;0.60;;
17193;SDS011;8713;48.388;10.928;2022-10-16T12:25:54;1.65;;;0.50;;
17193;SDS011;8713;48.388;10.928;2022-10-16T12:27:06;1.73;;;0.60;;
17193;SDS011;8713;48.388;10.928;2022-10-16T12:28:40;1.73;;;0.50;;
17193;SDS011;8713;48.388;10.928;2022-10-16T12:29:53;0.50;;;0.50;;
17193;SDS011;8713;48.388;10.928;2022-10-16T12:31:07;1.05;;;0.50;;
17193;SDS011;8713;48.388;10.928;2022-10-16T12:32:24;0.90;;;0.70;;
17193;SDS011;8713;48.388;10.928;2022-10-16T12:33:57;0.70;;;0.50;;
17193;SDS011;8713;48.388;10.928;2022-10-16T12:35:19;3.60;;;0.60;;
17193;SDS011;8713;48.388;10.928;2022-10-16T12:36:34;0.43;;;0.43;;
17193;SDS011;8713;48.388;10.928;2022-10-16T12:37:44;0.70;;;0.47;;
17193;SDS011;8713;48.388;10.928;2022-10-16T12:38:53;0.73;;;0.50;;
17193;SDS011;8713;48.388;10.928;2022-10-16T12:40:13;0.50;;;0.50;;
17193;SDS011;8713;48.388;10.928;2022-10-16T12:41:31;1.17;;;0.70;;
17193;SDS011;8713;48.388;10.928;2022-10-16T12:42:46;0.50;;;0.50;;
17193;SDS011;8713;48.388;10.928;2022-10-16T12:43:56;3.17;;;0.60;;
17193;SDS011;8713;48.388;10.928;2022-10-16T12:45:23;0.70;;;0.70;;
17193;SDS011;8713;48.388;10.928;2022-10-16T12:46:41;1.17;;;0.57;;
17193;SDS011;8713;48.388;10.928;2022-10-16T12:47:52;1.00;;;0.65;;
17193;SDS011;8713;48.388;10.928;2022-10-16T12:49:07;2.85;;;0.50;;
17193;SDS011;8713;48.388;10.928;2022-10-16T12:50:40;0.73;;;0.57;;
17193;SDS011;8713;48.388;10.928;2022-10-16T12:51:50;1.10;;;0.63;;
17193;SDS011;8713;48.388;10.928;2022-10-16T12:53:00;1.05;;;0.50;;
17193;SDS011;8713;48.388;10.928;2022-10-16T12:54:14;1.60;;;0.80;;
17193;SDS011;8713;48.388;10.928;2022-10-16T12:55:25;1.48;;;0.70;;
17193;SDS011;8713;48.388;10.928;2022-10-16T12:58:07;1.10;;;0.70;;
17193;SDS011;8713;48.388;10.928;2022-10-16T13:02:36;0.60;;;0.60;;
17193;SDS011;8713;48.388;10.928;2022-10-16T13:04:06;0.50;;;0.50;;
17193;SDS011;8713;48.388;10.928;2022-10-16T13:07:15;1.50;;;0.60;;
17193;SDS011;8713;48.388;10.928;2022-10-16T13:11:05;1.02;;;0.60;;
17193;SDS011;8713;48.388;10.928;2022-10-16T13:12:51;2.10;;;1.10;;
17193;SDS011;8713;48.388;10.928;2022-10-16T13:14:20;2.60;;;0.85;;
17193;SDS011;8713;48.388;10.928;2022-10-16T13:22:56;0.57;;;0.57;;
17193;SDS011;8713;48.388;10.928;2022-10-16T13:27:55;1.15;;;0.60;;
17193;SDS011;8713;48.388;10.928;2022-10-16T13:29:09;1.17;;;0.77;;
17193;SDS011;8713;48.388;10.928;2022-10-16T13:30:23;1.42;;;0.80;;
17193;SDS011;8713;48.388;10.928;2022-10-16T13:31:38;1.75;;;0.55;;
17193;SDS011;8713;48.388;10.928;2022-10-16T13:32:48;1.77;;;0.60;;
17193;SDS011;8713;48.388;10.928;2022-10-16T13:34:00;1.33;;;0.60;;
17193;SDS011;8713;48.388;10.928;2022-10-16T13:35:29;0.60;;;0.60;;
17193;SDS011;8713;48.388;10.928;2022-10-16T13:36:45;3.47;;;0.52;;
17193;SDS011;8713;48.388;10.928;2022-10-16T13:39:27;1.85;;;0.50;;
17193;SDS011;8713;48.388;10.928;2022-10-16T13:40:47;0.50;;;0.50;;
17193;SDS011;8713;48.388;10.928;2022-10-16T13:42:11;1.00;;;0.68;;
17193;SDS011;8713;48.388;10.928;2022-10-16T13:43:25;1.27;;;0.45;;
17193;SDS011;8713;48.388;10.928;2022-10-16T13:44:49;0.65;;;0.50;;
17193;SDS011;8713;48.388;10.928;2022-10-16T13:46:02;0.60;;;0.50;;
17193;SDS011;8713;48.388;10.928;2022-10-16T13:47:21;0.55;;;0.50;;
17193;SDS011;8713;48.388;10.928;2022-10-16T13:48:33;0.77;;;0.60;;
17193;SDS011;8713;48.388;10.928;2022-10-16T13:49:43;1.15;;;0.77;;
17193;SDS011;8713;48.388;10.928;2022-10-16T13:51:06;0.95;;;0.70;;
17193;SDS011;8713;48.388;10.928;2022-10-16T13:52:24;0.80;;;0.52;;
17193;SDS011;8713;48.388;10.928;2022-10-16T13:53:34;3.35;;;0.77;;
17193;SDS011;8713;48.388;10.928;2022-10-16T13:54:44;2.17;;;0.60;;
17193;SDS011;8713;48.388;10.928;2022-10-16T13:55:53;1.92;;;0.70;;
17193;SDS011;8713;48.388;10.928;2022-10-16T13:57:06;0.85;;;0.70;;
17193;SDS011;8713;48.388;10.928;2022-10-16T13:58:16;0.65;;;0.52;;
17193;SDS011;8713;48.388;10.928;2022-10-16T13:59:27;0.95;;;0.57;;
17193;SDS011;8713;48.388;10.928;2022-10-16T14:00:55;1.30;;;0.70;;
17193;SDS011;8713;48.388;10.928;2022-10-16T14:03:48;1.65;;;0.50;;
17193;SDS011;8713;48.388;10.928;2022-10-16T14:04:58;0.82;;;0.60;;